| Date | Time | Temp. (oF) | Dew Point (oF) | Rel. Hum. (%) | Press. (in.) | Wind Dir. | Wind Speed (mph) | Hourly Rainfall (in.) |
|
|---|---|---|---|---|---|---|---|---|---|
| 1 | 12/09 | 00:00 | 28 | 16 | 61 | 30.44 | NW | 7 | 0.00 |
| 2 | 12/08 | 23:00 | 29 | 17 | 63 | 30.41 | WNW | 6 | 0.00 |
| 3 | 12/08 | 22:00 | 30 | 19 | 65 | 30.38 | W | 7 | 0.00 |
| 4 | 12/08 | 21:00 | 33 | 23 | 68 | 30.34 | NW | 7 | 0.00 |
| 5 | 12/08 | 20:00 | 35 | 25 | 69 | 30.30 | NW | 10 | 0.00 |
| 6 | 12/08 | 19:00 | 36 | 28 | 74 | 30.26 | WNW | 6 | 0.00 |
| 7 | 12/08 | 18:00 | 37 | 31 | 79 | 30.22 | WNW | 5 | 0.00 |
| 8 | 12/08 | 17:00 | 39 | 30 | 71 | 30.19 | WNW | 4 | 0.00 |
| 9 | 12/08 | 16:00 | 39 | 31 | 74 | 30.16 | WNW | 5 | 0.00 |
| 10 | 12/08 | 15:00 | 40 | 31 | 72 | 30.14 | W | 3 | 0.00 |
| 11 | 12/08 | 14:00 | 41 | 31 | 69 | 30.13 | SSW | 4 | 0.00 |
| 12 | 12/08 | 13:00 | 41 | 31 | 69 | 30.14 | SW | 5 | 0.00 |
| 13 | 12/08 | 12:00 | 42 | 32 | 68 | 30.13 | SW | 5 | 0.00 |
| 14 | 12/08 | 11:00 | 31 | 28 | 92 | 30.18 | WSW | 1 | 0.00 |
| 15 | 12/08 | 10:00 | 23 | 22 | 99 | 30.20 | NW | 0 | 0.00 |
| 16 | 12/08 | 09:00 | 17 | 17 | 100 | 30.20 | WNW | 0 | 0.00 |
| 17 | 12/08 | 08:00 | 12 | 11 | 99 | 30.19 | W | 1 | 0.00 |
| 18 | 12/08 | 07:00 | 12 | 11 | 98 | 30.18 | NNW | 0 | 0.00 |
| 19 | 12/08 | 06:00 | 11 | 10 | 98 | 30.18 | WNW | 1 | 0.00 |
| 20 | 12/08 | 05:00 | 11 | 10 | 98 | 30.17 | SSE | 0 | 0.00 |
| 21 | 12/08 | 04:00 | 13 | 12 | 98 | 30.17 | S | 3 | 0.00 |
| 22 | 12/08 | 03:00 | 15 | 14 | 97 | 30.16 | N | 0 | 0.00 |
| 23 | 12/08 | 02:00 | 15 | 14 | 96 | 30.15 | WSW | 0 | 0.00 |
| 24 | 12/08 | 01:00 | 16 | 14 | 95 | 30.15 | SW | 0 | 0.00 |